SAS842 LSZH-ENGM
Flight info
| Callsign | SAS842 |
|---|---|
| Flight time | 2h 12m |
| Altitude | 36000 |
| Route | DEGES Z1 ETAGO DCT HAREM/N0438F370 DCT LOHRE DCT ELNAT/N0436F360 DCT DOSUR DCT PIPEX/N0431F370 M609 RIPAM |
| Aircraft | A320/M-SDE3FGHIJ1RWXYZ/ALB1 |
Departure
| Time | 2026-05-01 13:12 |
|---|---|
| Airport | Zürich Airport (LSZH) |
Arrival
| Time | 2026-05-01 15:25 |
|---|---|
| Airport | Oslo-Gardermoen International Airport (ENGM) |
| Time | Latitude | Longitude | Altitude | Speed | Heading |
|---|---|---|---|---|---|
| 2026-05-01 12:59 | 47.45407 | 8.55945 | 1407 ft | 0 kts | 187° |
| 2026-05-01 13:07 | 47.45497 | 8.55907 | 1414 ft | 0 kts | 96° |
| 2026-05-01 13:08 | 47.45496 | 8.55922 | 1407 ft | 4 kts | 96° |
| 2026-05-01 13:08 | 47.45491 | 8.55983 | 1411 ft | 8 kts | 97° |
| 2026-05-01 13:09 | 47.45484 | 8.56073 | 1407 ft | 10 kts | 95° |
| 2026-05-01 13:09 | 47.45477 | 8.56180 | 1407 ft | 11 kts | 94° |
| 2026-05-01 13:09 | 47.45511 | 8.56274 | 1410 ft | 10 kts | 49° |
| 2026-05-01 13:10 | 47.45580 | 8.56399 | 1418 ft | 8 kts | 51° |
| 2026-05-01 13:10 | 47.45594 | 8.56486 | 1414 ft | 13 kts | 96° |
| 2026-05-01 13:10 | 47.45582 | 8.56668 | 1418 ft | 19 kts | 95° |
| 2026-05-01 13:10 | 47.45566 | 8.56865 | 1420 ft | 20 kts | 98° |
| 2026-05-01 13:11 | 47.45590 | 8.57009 | 1423 ft | 13 kts | 28° |
| 2026-05-01 13:11 | 47.45664 | 8.57014 | 1425 ft | 8 kts | 315° |
| 2026-05-01 13:11 | 47.45670 | 8.56908 | 1423 ft | 24 kts | 275° |
| 2026-05-01 13:11 | 47.45715 | 8.56262 | 1417 ft | 99 kts | 276° |
| 2026-05-01 13:12 | 47.45809 | 8.54951 | 1392 ft | 156 kts | 276° |
| 2026-05-01 13:12 | 47.45935 | 8.53271 | 1808 ft | 166 kts | 276° |
| 2026-05-01 13:12 | 47.46061 | 8.51568 | 2491 ft | 167 kts | 276° |
| 2026-05-01 13:12 | 47.46179 | 8.49869 | 3164 ft | 166 kts | 276° |
| 2026-05-01 13:13 | 47.46200 | 8.48172 | 3772 ft | 166 kts | 252° |
| 2026-05-01 13:13 | 47.45626 | 8.46723 | 4223 ft | 165 kts | 234° |
| 2026-05-01 13:13 | 47.45052 | 8.45248 | 4661 ft | 168 kts | 242° |
| 2026-05-01 13:13 | 47.44479 | 8.43631 | 4880 ft | 189 kts | 242° |
| 2026-05-01 13:14 | 47.43837 | 8.41807 | 5108 ft | 211 kts | 242° |
| 2026-05-01 13:14 | 47.43132 | 8.39785 | 5381 ft | 230 kts | 242° |
| 2026-05-01 13:14 | 47.42221 | 8.37844 | 6030 ft | 233 kts | 220° |
| 2026-05-01 13:14 | 47.40820 | 8.36692 | 6752 ft | 233 kts | 192° |
| 2026-05-01 13:15 | 47.39214 | 8.36670 | 7423 ft | 233 kts | 163° |
| 2026-05-01 13:15 | 47.37816 | 8.37787 | 8092 ft | 234 kts | 134° |
| 2026-05-01 13:15 | 47.36933 | 8.39786 | 8748 ft | 236 kts | 106° |
| 2026-05-01 13:15 | 47.36808 | 8.42192 | 9399 ft | 240 kts | 78° |
| 2026-05-01 13:16 | 47.37510 | 8.44412 | 10035 ft | 243 kts | 48° |
| 2026-05-01 13:16 | 47.38781 | 8.46083 | 10689 ft | 246 kts | 40° |
| 2026-05-01 13:16 | 47.40085 | 8.47754 | 11199 ft | 257 kts | 50° |
| 2026-05-01 13:17 | 47.41089 | 8.56299 | 11746 ft | 323 kts | 90° |
| 2026-05-01 13:17 | 47.41091 | 8.59693 | 12120 ft | 336 kts | 90° |
| 2026-05-01 13:18 | 47.41104 | 8.66682 | 13380 ft | 344 kts | 89° |
| 2026-05-01 13:18 | 47.41114 | 8.70234 | 14024 ft | 347 kts | 89° |
| 2026-05-01 13:18 | 47.41128 | 8.73807 | 14653 ft | 350 kts | 89° |
| 2026-05-01 13:18 | 47.41143 | 8.77416 | 15261 ft | 353 kts | 89° |
| 2026-05-01 13:19 | 47.41158 | 8.81056 | 15849 ft | 356 kts | 89° |
| 2026-05-01 13:19 | 47.41173 | 8.84727 | 16429 ft | 359 kts | 89° |
| 2026-05-01 13:19 | 47.41200 | 8.92138 | 17546 ft | 364 kts | 89° |
| 2026-05-01 13:20 | 47.41213 | 8.95880 | 18106 ft | 366 kts | 89° |
| 2026-05-01 13:20 | 47.41224 | 8.99665 | 18671 ft | 369 kts | 89° |
| 2026-05-01 13:20 | 47.41232 | 9.03466 | 19216 ft | 372 kts | 89° |
| 2026-05-01 13:21 | 47.41239 | 9.11169 | 20301 ft | 379 kts | 89° |
| 2026-05-01 13:21 | 47.41247 | 9.15076 | 20822 ft | 381 kts | 87° |
| 2026-05-01 13:21 | 47.41555 | 9.18964 | 21316 ft | 384 kts | 77° |
| 2026-05-01 13:21 | 47.42352 | 9.22734 | 21800 ft | 386 kts | 66° |
| 2026-05-01 13:22 | 47.43593 | 9.26262 | 22280 ft | 388 kts | 59° |
| 2026-05-01 13:22 | 47.44948 | 9.29731 | 22765 ft | 391 kts | 59° |
| 2026-05-01 13:22 | 47.46305 | 9.33225 | 23213 ft | 393 kts | 59° |
| 2026-05-01 13:22 | 47.47873 | 9.36552 | 23653 ft | 396 kts | 49° |
| 2026-05-01 13:23 | 47.49846 | 9.39393 | 24088 ft | 398 kts | 38° |
| 2026-05-01 13:23 | 47.52174 | 9.41638 | 24497 ft | 401 kts | 27° |
| 2026-05-01 13:23 | 47.54768 | 9.43199 | 24905 ft | 404 kts | 19° |
| 2026-05-01 13:23 | 47.57457 | 9.44464 | 25311 ft | 407 kts | 15° |
| 2026-05-01 13:24 | 47.60253 | 9.45190 | 25705 ft | 409 kts | 5° |
| 2026-05-01 13:24 | 47.63104 | 9.45369 | 26092 ft | 411 kts | 2° |
| 2026-05-01 13:24 | 47.65971 | 9.45514 | 26464 ft | 413 kts | 2° |
| 2026-05-01 13:25 | 47.71750 | 9.45833 | 27186 ft | 417 kts | 3° |
| 2026-05-01 13:25 | 47.74654 | 9.45995 | 27533 ft | 419 kts | 3° |
| 2026-05-01 13:25 | 47.77568 | 9.46153 | 27871 ft | 420 kts | 2° |
| 2026-05-01 13:25 | 47.80497 | 9.46306 | 28207 ft | 422 kts | 2° |
| 2026-05-01 13:26 | 47.83443 | 9.46388 | 28530 ft | 424 kts | 1° |
| 2026-05-01 13:26 | 47.86402 | 9.46393 | 28846 ft | 426 kts | 0° |
| 2026-05-01 13:26 | 47.89371 | 9.46357 | 29172 ft | 428 kts | 0° |
| 2026-05-01 13:26 | 47.92354 | 9.46305 | 29490 ft | 430 kts | 360° |
| 2026-05-01 13:27 | 47.95356 | 9.46257 | 29788 ft | 432 kts | 0° |
| 2026-05-01 13:27 | 47.98366 | 9.46224 | 30113 ft | 432 kts | 0° |
| 2026-05-01 13:27 | 48.04323 | 9.46201 | 30949 ft | 430 kts | 0° |
| 2026-05-01 13:28 | 48.10294 | 9.46206 | 31742 ft | 428 kts | 0° |
| 2026-05-01 13:28 | 48.13268 | 9.46204 | 32128 ft | 427 kts | 0° |
| 2026-05-01 13:29 | 48.19203 | 9.46199 | 32885 ft | 426 kts | 1° |
| 2026-05-01 13:29 | 48.25120 | 9.46198 | 33630 ft | 424 kts | 1° |
| 2026-05-01 13:30 | 48.36885 | 9.46214 | 34994 ft | 422 kts | 1° |
| 2026-05-01 13:31 | 48.42747 | 9.46218 | 35574 ft | 421 kts | 1° |
| 2026-05-01 13:31 | 48.51532 | 9.46225 | 36283 ft | 422 kts | 0° |
| 2026-05-01 13:32 | 48.57457 | 9.46204 | 36312 ft | 428 kts | 0° |
| 2026-05-01 13:33 | 48.72398 | 9.45999 | 36299 ft | 430 kts | 0° |
| 2026-05-01 13:34 | 48.84385 | 9.45462 | 36307 ft | 431 kts | 358° |
| 2026-05-01 13:35 | 48.93349 | 9.44952 | 36314 ft | 432 kts | 358° |
| 2026-05-01 13:36 | 49.02366 | 9.44511 | 36322 ft | 432 kts | 359° |
| 2026-05-01 13:36 | 49.11391 | 9.44052 | 36329 ft | 433 kts | 358° |
| 2026-05-01 13:37 | 49.17408 | 9.43725 | 36336 ft | 433 kts | 358° |
| 2026-05-01 13:37 | 49.23425 | 9.43421 | 36339 ft | 433 kts | 359° |
| 2026-05-01 13:38 | 49.32449 | 9.42978 | 36342 ft | 433 kts | 358° |
| 2026-05-01 13:39 | 49.38479 | 9.42654 | 36347 ft | 433 kts | 358° |
| 2026-05-01 13:39 | 49.44513 | 9.42335 | 36343 ft | 433 kts | 358° |
| 2026-05-01 13:40 | 49.50541 | 9.42024 | 36342 ft | 433 kts | 358° |
| 2026-05-01 13:40 | 49.56566 | 9.41722 | 36343 ft | 433 kts | 358° |
| 2026-05-01 13:41 | 49.62590 | 9.41577 | 36342 ft | 432 kts | 5° |
| 2026-05-01 13:41 | 49.68568 | 9.42527 | 36346 ft | 432 kts | 6° |
| 2026-05-01 13:42 | 49.74560 | 9.43479 | 36349 ft | 432 kts | 6° |
| 2026-05-01 13:42 | 49.80549 | 9.44428 | 36351 ft | 433 kts | 6° |
| 2026-05-01 13:43 | 49.86538 | 9.45384 | 36355 ft | 433 kts | 6° |
| 2026-05-01 13:43 | 49.92528 | 9.46351 | 36350 ft | 433 kts | 6° |
| 2026-05-01 13:44 | 49.98484 | 9.47313 | 36351 ft | 433 kts | 6° |
| 2026-05-01 13:44 | 50.04478 | 9.48288 | 36351 ft | 433 kts | 6° |
| 2026-05-01 13:45 | 50.10477 | 9.49268 | 36355 ft | 433 kts | 6° |
| 2026-05-01 13:45 | 50.16469 | 9.50337 | 36359 ft | 433 kts | 7° |
| 2026-05-01 13:46 | 50.22453 | 9.51429 | 36359 ft | 433 kts | 7° |
| 2026-05-01 13:46 | 50.28446 | 9.52485 | 36359 ft | 433 kts | 6° |
| 2026-05-01 13:47 | 50.34433 | 9.53541 | 36359 ft | 433 kts | 6° |
| 2026-05-01 13:47 | 50.40420 | 9.54603 | 36358 ft | 433 kts | 6° |
| 2026-05-01 13:48 | 50.46410 | 9.55675 | 36359 ft | 434 kts | 6° |
| 2026-05-01 13:48 | 50.52407 | 9.56742 | 36358 ft | 434 kts | 6° |
| 2026-05-01 13:49 | 50.58406 | 9.57818 | 36365 ft | 434 kts | 7° |
| 2026-05-01 13:49 | 50.64406 | 9.58879 | 36367 ft | 434 kts | 6° |
| 2026-05-01 13:50 | 50.70413 | 9.59971 | 36371 ft | 435 kts | 7° |
| 2026-05-01 13:50 | 50.76378 | 9.61056 | 36372 ft | 435 kts | 7° |
| 2026-05-01 13:51 | 50.82390 | 9.62144 | 36373 ft | 435 kts | 7° |
| 2026-05-01 13:51 | 50.88392 | 9.63236 | 36371 ft | 434 kts | 7° |
| 2026-05-01 13:52 | 50.94396 | 9.64326 | 36369 ft | 434 kts | 7° |
| 2026-05-01 13:52 | 51.00390 | 9.65416 | 36455 ft | 435 kts | 6° |
| 2026-05-01 13:52 | 51.03399 | 9.65962 | 36707 ft | 435 kts | 7° |
| 2026-05-01 13:53 | 51.06408 | 9.66510 | 37005 ft | 433 kts | 6° |
| 2026-05-01 13:53 | 51.11361 | 9.67422 | 37348 ft | 429 kts | 7° |
| 2026-05-01 13:53 | 51.14314 | 9.67969 | 37367 ft | 428 kts | 7° |
| 2026-05-01 13:54 | 51.20221 | 9.68959 | 37361 ft | 427 kts | 1° |
| 2026-05-01 13:54 | 51.26144 | 9.68380 | 37355 ft | 427 kts | 355° |
| 2026-05-01 13:55 | 51.32066 | 9.67634 | 37351 ft | 427 kts | 355° |
| 2026-05-01 13:55 | 51.37998 | 9.66899 | 37359 ft | 428 kts | 355° |
| 2026-05-01 13:56 | 51.43940 | 9.66145 | 37363 ft | 428 kts | 355° |
| 2026-05-01 13:56 | 51.49886 | 9.65400 | 37362 ft | 428 kts | 355° |
| 2026-05-01 13:57 | 51.55831 | 9.64655 | 37365 ft | 428 kts | 355° |
| 2026-05-01 13:57 | 51.61778 | 9.63900 | 37377 ft | 428 kts | 355° |
| 2026-05-01 13:58 | 51.67726 | 9.63131 | 37366 ft | 429 kts | 355° |
| 2026-05-01 13:58 | 51.73675 | 9.62362 | 37377 ft | 429 kts | 355° |
| 2026-05-01 13:59 | 51.79627 | 9.61599 | 37375 ft | 429 kts | 355° |
| 2026-05-01 13:59 | 51.85580 | 9.60844 | 37370 ft | 430 kts | 355° |
| 2026-05-01 14:00 | 51.91543 | 9.60078 | 37372 ft | 430 kts | 355° |
| 2026-05-01 14:00 | 51.97513 | 9.59306 | 37373 ft | 430 kts | 355° |
| 2026-05-01 14:01 | 52.03471 | 9.58531 | 37376 ft | 429 kts | 355° |
| 2026-05-01 14:01 | 52.09424 | 9.57754 | 37384 ft | 429 kts | 355° |
| 2026-05-01 14:02 | 52.15381 | 9.56979 | 37374 ft | 429 kts | 355° |
| 2026-05-01 14:02 | 52.21335 | 9.56207 | 37379 ft | 430 kts | 355° |
| 2026-05-01 14:03 | 52.27250 | 9.55439 | 37374 ft | 429 kts | 355° |
| 2026-05-01 14:03 | 52.33205 | 9.54656 | 37380 ft | 429 kts | 355° |
| 2026-05-01 14:04 | 52.39159 | 9.53876 | 37374 ft | 429 kts | 355° |
| 2026-05-01 14:04 | 52.45116 | 9.53086 | 37377 ft | 429 kts | 355° |
| 2026-05-01 14:05 | 52.51077 | 9.52299 | 37374 ft | 430 kts | 355° |
| 2026-05-01 14:05 | 52.57031 | 9.51523 | 37372 ft | 429 kts | 355° |
| 2026-05-01 14:06 | 52.62992 | 9.50731 | 37372 ft | 430 kts | 355° |
| 2026-05-01 14:06 | 52.68948 | 9.49928 | 37374 ft | 429 kts | 355° |
| 2026-05-01 14:07 | 52.74915 | 9.49133 | 37372 ft | 430 kts | 355° |
| 2026-05-01 14:08 | 52.83859 | 9.47925 | 37369 ft | 430 kts | 355° |
| 2026-05-01 14:08 | 52.89825 | 9.47122 | 37375 ft | 430 kts | 355° |
| 2026-05-01 14:09 | 52.95793 | 9.46318 | 37363 ft | 430 kts | 355° |
| 2026-05-01 14:09 | 53.01718 | 9.45516 | 37363 ft | 430 kts | 355° |
| 2026-05-01 14:10 | 53.07684 | 9.44697 | 37361 ft | 430 kts | 355° |
| 2026-05-01 14:10 | 53.13649 | 9.43888 | 37370 ft | 430 kts | 355° |
| 2026-05-01 14:11 | 53.19621 | 9.43088 | 37375 ft | 430 kts | 355° |
| 2026-05-01 14:11 | 53.28579 | 9.41857 | 37363 ft | 430 kts | 355° |
| 2026-05-01 14:12 | 53.34544 | 9.41036 | 37367 ft | 430 kts | 355° |
| 2026-05-01 14:12 | 53.40512 | 9.40211 | 37371 ft | 430 kts | 355° |
| 2026-05-01 14:13 | 53.45514 | 9.39516 | 37361 ft | 431 kts | 355° |
| 2026-05-01 14:13 | 53.52459 | 9.38553 | 37360 ft | 431 kts | 355° |
| 2026-05-01 14:14 | 53.58435 | 9.37726 | 37364 ft | 431 kts | 355° |
| 2026-05-01 14:14 | 53.64417 | 9.36895 | 37375 ft | 431 kts | 355° |
| 2026-05-01 14:15 | 53.70389 | 9.36058 | 37366 ft | 431 kts | 355° |
| 2026-05-01 14:15 | 53.76367 | 9.35214 | 37375 ft | 431 kts | 355° |
| 2026-05-01 14:16 | 53.82349 | 9.34372 | 37378 ft | 431 kts | 355° |
| 2026-05-01 14:16 | 53.88330 | 9.33530 | 37375 ft | 431 kts | 355° |
| 2026-05-01 14:17 | 53.94310 | 9.32691 | 37385 ft | 431 kts | 355° |
| 2026-05-01 14:17 | 54.00285 | 9.31838 | 37376 ft | 431 kts | 355° |
| 2026-05-01 14:18 | 54.06264 | 9.30980 | 37374 ft | 431 kts | 355° |
| 2026-05-01 14:18 | 54.11235 | 9.30271 | 37374 ft | 431 kts | 355° |
| 2026-05-01 14:19 | 54.18181 | 9.29284 | 37373 ft | 431 kts | 355° |
| 2026-05-01 14:19 | 54.24164 | 9.28422 | 37378 ft | 432 kts | 355° |
| 2026-05-01 14:20 | 54.33157 | 9.27131 | 37382 ft | 432 kts | 355° |
| 2026-05-01 14:21 | 54.39140 | 9.26265 | 37376 ft | 432 kts | 355° |
| 2026-05-01 14:21 | 54.45128 | 9.25394 | 37376 ft | 432 kts | 355° |
| 2026-05-01 14:22 | 54.54102 | 9.24094 | 37379 ft | 432 kts | 355° |
| 2026-05-01 14:22 | 54.60090 | 9.23212 | 37377 ft | 432 kts | 355° |
| 2026-05-01 14:23 | 54.66073 | 9.22332 | 37379 ft | 432 kts | 355° |
| 2026-05-01 14:23 | 54.72064 | 9.21460 | 37376 ft | 432 kts | 355° |
| 2026-05-01 14:24 | 54.78045 | 9.20584 | 37376 ft | 431 kts | 355° |
| 2026-05-01 14:24 | 54.84026 | 9.19702 | 37379 ft | 432 kts | 355° |
| 2026-05-01 14:25 | 54.90024 | 9.19047 | 37375 ft | 432 kts | 358° |
| 2026-05-01 14:25 | 54.96034 | 9.18915 | 37375 ft | 432 kts | 360° |
| 2026-05-01 14:26 | 55.05045 | 9.18794 | 37375 ft | 432 kts | 359° |
| 2026-05-01 14:27 | 55.11054 | 9.18580 | 37376 ft | 431 kts | 358° |
| 2026-05-01 14:27 | 55.17057 | 9.18339 | 37377 ft | 432 kts | 359° |
| 2026-05-01 14:28 | 55.26067 | 9.18018 | 37384 ft | 432 kts | 359° |
| 2026-05-01 14:28 | 55.32035 | 9.17811 | 37387 ft | 432 kts | 359° |
| 2026-05-01 14:29 | 55.38079 | 9.17586 | 37380 ft | 432 kts | 358° |
| 2026-05-01 14:30 | 55.50096 | 9.17177 | 37377 ft | 432 kts | 359° |
| 2026-05-01 14:31 | 55.59074 | 9.16872 | 37381 ft | 432 kts | 359° |
| 2026-05-01 14:31 | 55.65079 | 9.16667 | 37376 ft | 432 kts | 358° |
| 2026-05-01 14:32 | 55.71083 | 9.16450 | 37387 ft | 431 kts | 358° |
| 2026-05-01 14:32 | 55.77090 | 9.16237 | 37378 ft | 432 kts | 358° |
| 2026-05-01 14:33 | 55.83101 | 9.16016 | 37379 ft | 432 kts | 358° |
| 2026-05-01 14:33 | 55.89104 | 9.15783 | 37377 ft | 432 kts | 358° |
| 2026-05-01 14:34 | 55.95112 | 9.15570 | 37373 ft | 431 kts | 359° |
| 2026-05-01 14:34 | 56.01115 | 9.15364 | 37371 ft | 432 kts | 358° |
| 2026-05-01 14:35 | 56.07120 | 9.15142 | 37364 ft | 432 kts | 358° |
| 2026-05-01 14:35 | 56.13132 | 9.14914 | 37373 ft | 432 kts | 358° |
| 2026-05-01 14:36 | 56.19146 | 9.14679 | 37352 ft | 432 kts | 358° |
| 2026-05-01 14:36 | 56.25163 | 9.14471 | 37363 ft | 432 kts | 358° |
| 2026-05-01 14:37 | 56.31178 | 9.14260 | 37366 ft | 433 kts | 358° |
| 2026-05-01 14:37 | 56.36175 | 9.14072 | 37348 ft | 432 kts | 358° |
| 2026-05-01 14:38 | 56.42194 | 9.13843 | 37349 ft | 432 kts | 358° |
| 2026-05-01 14:38 | 56.48213 | 9.13621 | 37364 ft | 433 kts | 358° |
| 2026-05-01 14:39 | 56.54232 | 9.13406 | 37364 ft | 433 kts | 358° |
| 2026-05-01 14:39 | 56.60252 | 9.13187 | 37353 ft | 432 kts | 358° |
| 2026-05-01 14:40 | 56.66268 | 9.12960 | 37356 ft | 432 kts | 358° |
| 2026-05-01 14:40 | 56.72280 | 9.12734 | 37359 ft | 432 kts | 358° |
| 2026-05-01 14:41 | 56.78286 | 9.12512 | 37365 ft | 432 kts | 358° |
| 2026-05-01 14:41 | 56.84303 | 9.12277 | 37349 ft | 432 kts | 358° |
| 2026-05-01 14:42 | 56.90280 | 9.12051 | 37349 ft | 432 kts | 358° |
| 2026-05-01 14:42 | 56.96306 | 9.11814 | 37350 ft | 433 kts | 358° |
| 2026-05-01 14:43 | 57.02325 | 9.11577 | 37350 ft | 433 kts | 358° |
| 2026-05-01 14:43 | 57.08349 | 9.11354 | 37366 ft | 433 kts | 358° |
| 2026-05-01 14:44 | 57.14374 | 9.11131 | 37348 ft | 433 kts | 358° |
| 2026-05-01 14:44 | 57.23409 | 9.10767 | 37348 ft | 433 kts | 358° |
| 2026-05-01 14:45 | 57.32446 | 9.10401 | 37346 ft | 433 kts | 358° |
| 2026-05-01 14:46 | 57.38473 | 9.10187 | 37346 ft | 433 kts | 358° |
| 2026-05-01 14:46 | 57.47500 | 9.09843 | 37346 ft | 433 kts | 357° |
| 2026-05-01 14:47 | 57.53533 | 9.09595 | 37342 ft | 433 kts | 357° |
| 2026-05-01 14:48 | 57.62574 | 9.09230 | 37338 ft | 433 kts | 357° |
| 2026-05-01 14:48 | 57.71609 | 9.08867 | 37333 ft | 433 kts | 357° |
| 2026-05-01 14:49 | 57.83659 | 9.08404 | 37329 ft | 433 kts | 357° |
| 2026-05-01 14:50 | 57.95717 | 9.07910 | 37325 ft | 433 kts | 357° |
| 2026-05-01 14:51 | 58.04757 | 9.07538 | 37325 ft | 433 kts | 357° |
| 2026-05-01 14:52 | 58.13807 | 9.07179 | 37322 ft | 434 kts | 357° |
| 2026-05-01 14:53 | 58.22819 | 9.06818 | 37317 ft | 434 kts | 356° |
| 2026-05-01 14:53 | 58.28854 | 9.06573 | 37315 ft | 433 kts | 356° |
| 2026-05-01 14:54 | 58.34920 | 9.06325 | 37310 ft | 433 kts | 356° |
| 2026-05-01 14:54 | 58.40914 | 9.06061 | 37308 ft | 434 kts | 356° |
| 2026-05-01 14:55 | 58.46948 | 9.05811 | 37307 ft | 434 kts | 356° |
| 2026-05-01 14:55 | 58.52981 | 9.05541 | 37305 ft | 434 kts | 356° |
| 2026-05-01 14:56 | 58.59019 | 9.05268 | 37301 ft | 434 kts | 356° |
| 2026-05-01 14:56 | 58.65054 | 9.05027 | 37050 ft | 433 kts | 356° |
| 2026-05-01 14:56 | 58.68068 | 9.04902 | 36800 ft | 432 kts | 356° |
| 2026-05-01 14:57 | 58.71068 | 9.04773 | 36548 ft | 432 kts | 356° |
| 2026-05-01 14:57 | 58.77106 | 9.04513 | 36059 ft | 436 kts | 356° |
| 2026-05-01 14:57 | 58.80153 | 9.04596 | 35797 ft | 441 kts | 4° |
| 2026-05-01 14:58 | 58.83183 | 9.05614 | 35548 ft | 444 kts | 13° |
| 2026-05-01 14:58 | 58.86093 | 9.07626 | 35296 ft | 446 kts | 24° |
| 2026-05-01 14:58 | 58.88789 | 9.10575 | 35047 ft | 445 kts | 33° |
| 2026-05-01 14:58 | 58.91238 | 9.14205 | 34615 ft | 443 kts | 37° |
| 2026-05-01 14:59 | 58.93652 | 9.17904 | 34115 ft | 441 kts | 37° |
| 2026-05-01 14:59 | 58.96053 | 9.21592 | 33627 ft | 439 kts | 37° |
| 2026-05-01 14:59 | 58.98445 | 9.25275 | 33133 ft | 437 kts | 37° |
| 2026-05-01 14:59 | 59.00819 | 9.28936 | 32616 ft | 435 kts | 37° |
| 2026-05-01 15:00 | 59.05521 | 9.36235 | 31630 ft | 430 kts | 37° |
| 2026-05-01 15:00 | 59.07847 | 9.39869 | 31143 ft | 428 kts | 37° |
| 2026-05-01 15:00 | 59.10161 | 9.43491 | 30665 ft | 426 kts | 37° |
| 2026-05-01 15:01 | 59.12460 | 9.47092 | 30186 ft | 423 kts | 37° |
| 2026-05-01 15:01 | 59.14747 | 9.50677 | 29725 ft | 420 kts | 37° |
| 2026-05-01 15:01 | 59.17022 | 9.54248 | 29267 ft | 418 kts | 37° |
| 2026-05-01 15:01 | 59.19319 | 9.57698 | 28819 ft | 415 kts | 32° |
| 2026-05-01 15:02 | 59.21722 | 9.60774 | 28394 ft | 412 kts | 31° |
| 2026-05-01 15:02 | 59.23307 | 9.62800 | 28108 ft | 411 kts | 31° |
| 2026-05-01 15:02 | 59.26492 | 9.66885 | 27551 ft | 408 kts | 31° |
| 2026-05-01 15:02 | 59.28861 | 9.69938 | 27138 ft | 406 kts | 31° |
| 2026-05-01 15:03 | 59.31178 | 9.72913 | 26900 ft | 399 kts | 29° |
| 2026-05-01 15:03 | 59.33620 | 9.75329 | 26681 ft | 390 kts | 18° |
| 2026-05-01 15:03 | 59.36207 | 9.76936 | 26115 ft | 382 kts | 13° |
| 2026-05-01 15:03 | 59.38718 | 9.78330 | 25556 ft | 375 kts | 13° |
| 2026-05-01 15:04 | 59.41204 | 9.79702 | 25175 ft | 370 kts | 13° |
| 2026-05-01 15:04 | 59.43674 | 9.81061 | 24769 ft | 368 kts | 13° |
| 2026-05-01 15:04 | 59.46135 | 9.82415 | 24367 ft | 366 kts | 13° |
| 2026-05-01 15:04 | 59.48584 | 9.83770 | 23957 ft | 364 kts | 13° |
| 2026-05-01 15:05 | 59.51022 | 9.85130 | 23531 ft | 364 kts | 13° |
| 2026-05-01 15:05 | 59.53451 | 9.86490 | 23134 ft | 362 kts | 13° |
| 2026-05-01 15:05 | 59.55874 | 9.87850 | 22710 ft | 362 kts | 13° |
| 2026-05-01 15:05 | 59.58291 | 9.89210 | 22289 ft | 361 kts | 13° |
| 2026-05-01 15:06 | 59.60711 | 9.90574 | 21853 ft | 361 kts | 13° |
| 2026-05-01 15:06 | 59.63122 | 9.91932 | 21427 ft | 360 kts | 13° |
| 2026-05-01 15:06 | 59.65527 | 9.93288 | 21011 ft | 358 kts | 12° |
| 2026-05-01 15:06 | 59.67923 | 9.94641 | 20584 ft | 358 kts | 12° |
| 2026-05-01 15:07 | 59.70305 | 9.95977 | 20214 ft | 355 kts | 12° |
| 2026-05-01 15:07 | 59.72683 | 9.97303 | 19846 ft | 353 kts | 12° |
| 2026-05-01 15:07 | 59.75050 | 9.98623 | 19411 ft | 352 kts | 12° |
| 2026-05-01 15:07 | 59.77408 | 9.99943 | 18943 ft | 353 kts | 12° |
| 2026-05-01 15:08 | 59.79748 | 10.01254 | 18692 ft | 347 kts | 12° |
| 2026-05-01 15:08 | 59.82067 | 10.02562 | 18272 ft | 346 kts | 12° |
| 2026-05-01 15:08 | 59.84379 | 10.03864 | 17879 ft | 345 kts | 12° |
| 2026-05-01 15:08 | 59.86680 | 10.05161 | 17483 ft | 343 kts | 12° |
| 2026-05-01 15:09 | 59.88969 | 10.06459 | 17110 ft | 341 kts | 12° |
| 2026-05-01 15:09 | 59.91243 | 10.07751 | 16742 ft | 340 kts | 12° |
| 2026-05-01 15:09 | 59.93511 | 10.09042 | 16379 ft | 338 kts | 12° |
| 2026-05-01 15:09 | 59.95764 | 10.10326 | 16018 ft | 336 kts | 12° |
| 2026-05-01 15:10 | 59.98002 | 10.11605 | 15653 ft | 334 kts | 12° |
| 2026-05-01 15:10 | 60.02446 | 10.14147 | 14925 ft | 330 kts | 12° |
| 2026-05-01 15:10 | 60.04645 | 10.15410 | 14471 ft | 326 kts | 12° |
| 2026-05-01 15:11 | 60.06815 | 10.16665 | 13816 ft | 323 kts | 12° |
| 2026-05-01 15:11 | 60.11050 | 10.19131 | 12807 ft | 308 kts | 12° |
| 2026-05-01 15:11 | 60.13115 | 10.20328 | 12439 ft | 308 kts | 12° |
| 2026-05-01 15:12 | 60.15176 | 10.21519 | 12069 ft | 309 kts | 12° |
| 2026-05-01 15:12 | 60.19290 | 10.23898 | 11392 ft | 307 kts | 12° |
| 2026-05-01 15:12 | 60.21333 | 10.25094 | 11058 ft | 306 kts | 15° |
| 2026-05-01 15:13 | 60.25731 | 10.33989 | 10320 ft | 309 kts | 59° |
| 2026-05-01 15:14 | 60.27846 | 10.41461 | 9960 ft | 306 kts | 60° |
| 2026-05-01 15:14 | 60.28894 | 10.45187 | 9841 ft | 306 kts | 60° |
| 2026-05-01 15:14 | 60.30997 | 10.52608 | 9586 ft | 304 kts | 60° |
| 2026-05-01 15:15 | 60.33059 | 10.59905 | 9239 ft | 294 kts | 60° |
| 2026-05-01 15:15 | 60.35089 | 10.67112 | 8511 ft | 296 kts | 60° |
| 2026-05-01 15:16 | 60.37118 | 10.74346 | 7767 ft | 296 kts | 60° |
| 2026-05-01 15:16 | 60.39144 | 10.81596 | 7081 ft | 295 kts | 60° |
| 2026-05-01 15:17 | 60.41164 | 10.88829 | 6289 ft | 295 kts | 60° |
| 2026-05-01 15:18 | 60.44014 | 10.99100 | 5282 ft | 261 kts | 60° |
| 2026-05-01 15:18 | 60.44884 | 11.02239 | 5194 ft | 250 kts | 60° |
| 2026-05-01 15:19 | 60.44849 | 11.11677 | 4711 ft | 229 kts | 128° |
| 2026-05-01 15:19 | 60.42636 | 11.16180 | 4244 ft | 222 kts | 139° |
| 2026-05-01 15:19 | 60.41549 | 11.18207 | 4155 ft | 209 kts | 149° |
| 2026-05-01 15:20 | 60.38907 | 11.19208 | 3926 ft | 193 kts | 198° |
| 2026-05-01 15:20 | 60.37664 | 11.18482 | 3883 ft | 180 kts | 198° |
| 2026-05-01 15:20 | 60.36478 | 11.17799 | 3670 ft | 174 kts | 198° |
| 2026-05-01 15:21 | 60.35328 | 11.17133 | 3456 ft | 171 kts | 198° |
| 2026-05-01 15:21 | 60.34193 | 11.16471 | 3231 ft | 168 kts | 198° |
| 2026-05-01 15:21 | 60.33076 | 11.15823 | 3011 ft | 166 kts | 198° |
| 2026-05-01 15:21 | 60.31981 | 11.15187 | 2800 ft | 162 kts | 198° |
| 2026-05-01 15:22 | 60.30188 | 11.14144 | 2434 ft | 156 kts | 198° |
| 2026-05-01 15:22 | 60.29204 | 11.13573 | 2261 ft | 144 kts | 197° |
| 2026-05-01 15:22 | 60.28247 | 11.13017 | 2061 ft | 139 kts | 198° |
| 2026-05-01 15:23 | 60.27334 | 11.12486 | 1881 ft | 138 kts | 197° |
| 2026-05-01 15:23 | 60.26407 | 11.11949 | 1693 ft | 137 kts | 197° |
| 2026-05-01 15:23 | 60.25506 | 11.11426 | 1515 ft | 136 kts | 197° |
| 2026-05-01 15:23 | 60.24582 | 11.10891 | 1332 ft | 136 kts | 197° |
| 2026-05-01 15:24 | 60.23682 | 11.10367 | 1148 ft | 137 kts | 197° |
| 2026-05-01 15:24 | 60.22769 | 11.09831 | 937 ft | 137 kts | 197° |
| 2026-05-01 15:24 | 60.21855 | 11.09312 | 755 ft | 137 kts | 197° |
| 2026-05-01 15:24 | 60.20988 | 11.08809 | 681 ft | 113 kts | 197° |
| 2026-05-01 15:25 | 60.20395 | 11.08468 | 678 ft | 64 kts | 195° |
| 2026-05-01 15:25 | 60.20114 | 11.08314 | 676 ft | 28 kts | 191° |
| 2026-05-01 15:25 | 60.19948 | 11.08319 | 673 ft | 16 kts | 162° |
| 2026-05-01 15:25 | 60.19889 | 11.08474 | 674 ft | 12 kts | 108° |
| 2026-05-01 15:26 | 60.19866 | 11.08618 | 676 ft | 12 kts | 107° |
| 2026-05-01 15:26 | 60.19842 | 11.08786 | 677 ft | 14 kts | 105° |
| 2026-05-01 15:26 | 60.19813 | 11.08987 | 681 ft | 14 kts | 107° |
| 2026-05-01 15:26 | 60.19735 | 11.09071 | 681 ft | 14 kts | 137° |
| 2026-05-01 15:27 | 60.19705 | 11.09249 | 680 ft | 11 kts | 110° |
| 2026-05-01 15:27 | 60.19668 | 11.09243 | 684 ft | 5 kts | 196° |
| 2026-05-01 15:27 | 60.19632 | 11.09222 | 685 ft | 6 kts | 195° |
| 2026-05-01 15:28 | 60.19594 | 11.09200 | 685 ft | 0 kts | 197° |